Conantville, Connecticut
Current Conditions -  °F | °C
As of 11:01 PM on Wednesday 22 Oct 2014 (Local Time) from KIJD Reporting Station
Overcast Overcast  
Wind Chill: 51°   Ceiling: 1900
Heat Index: 51°   Visibility: 10mi
Dew Point: 46°   Wind: 22mph
Humidity: 83%   Direction: 30°NNE
Pressure: 29.76"   Gusts: 36mph
Location:  41.7073°N, 72.2065°W
Report Text: KIJD 230301Z AUTO 03019G31KT 10SM BKN019 BKN042 OVC070 11/08 A2976 RMK AO2 PK WND 04031/0301 LTG DSNT S RAE00 P0000 T01060078
Loading
Personal Weather Stations






























Interactive Weather Map
Tropical Storm Tracking
New forecast layout! Learn more

10-Day Weather Forecast

Advertisements
Track Severe Weather on mobile